首页
METAR-TAF:

METAR-TAF

机场 :

布拉提斯拉瓦機場

布拉迪斯拉发, 斯洛伐克

纬度: 48-12N, 经度: 017-12E, 海拔: 133米

当前天气观测

该预报发布于37分钟前的05:30 UTC
风速6节,风向西转西南,在西南西北之间变化
温度 10°C
湿度 71%
气压 1022 hPa
能见度10公里或以上
多云层高于4600英尺
多云层高于6200英尺
小雨

METAR: LZIB 230530Z 25006KT 220V310 9999 -RA BKN046 BKN062 10/05 Q1022 NOSIG

时间: 07:07 (06:07 UTC)

预报

该预报发布于1小时和7分钟前的05:00 UTC
预报有效从23日的 06点(UTC)到 24日的 06点(UTC)
风速12节,风向西南
能见度10公里或以上
散云层高于4500英尺
多云层高于6000英尺
短暂存在
从 23日的 06点(UTC)到 23日的 16点(UTC)
多云层高于4000英尺
小雨
成为
从 23日的 08点(UTC)到 23日的 10点(UTC)
风速18节,风向西,有时为30节阵风
短暂存在
从 23日的 10点(UTC)到 23日的 17点(UTC)
风速25节,风向西,有时为37节阵风
短暂存在
从 23日的 17点(UTC)到 24日的 03点(UTC)
风速35节,风向西转西北,有时为55节阵风
短暂存在
从 23日的 23点(UTC)到 24日的 04点(UTC)
能見度: 7000
多云层高于3000英尺
少量云层高于4000英尺, 塔状积云.
阵雨

TAF: LZIB 230500Z 2306/2406 22012KT 9999 SCT045 BKN060 TEMPO 2306/2316 -RA BKN040 BECMG 2308/2310 26018G30KT TEMPO 2310/2317 27025G37KT TEMPO 2317/2403 29035G55KT TEMPO 2323/2404 7000 SHRA BKN030 FEW040TCU

超过4000个机场的气象观测和天气预报(METAR&TAF报告)。

可查询的气象台以黄色和红色小点在地图上表示。

将鼠标移到小点上方,可查看气象台名称。

然后点击查看天气观测和预报。

如需切换地图:点击带黑十字的绿色按钮放大地图;点击带横线的绿色按钮缩小地图;或者点击绿色箭头查看邻近地区的地图。


METAR-TAF: